sensor_id;sensor_type;location;lat;lon;timestamp;P1;P2;P0
55686;PMS5003;41911;52.362;4.978;2023-05-07T00:00:24;43.0;43.0;
55686;PMS5003;41911;52.362;4.978;2023-05-07T00:00:55;43.0;42.0;
55686;PMS5003;41911;52.362;4.978;2023-05-07T00:01:26;42.0;40.0;
55686;PMS5003;41911;52.362;4.978;2023-05-07T00:01:57;45.0;44.0;
55686;PMS5003;41911;52.362;4.978;2023-05-07T00:02:28;40.0;39.0;
55686;PMS5003;41911;52.362;4.978;2023-05-07T00:02:59;42.0;41.0;
55686;PMS5003;41911;52.362;4.978;2023-05-07T00:03:31;43.0;43.0;
55686;PMS5003;41911;52.362;4.978;2023-05-07T00:04:02;43.0;43.0;
55686;PMS5003;41911;52.362;4.978;2023-05-07T00:04:35;46.0;44.0;
55686;PMS5003;41911;52.362;4.978;2023-05-07T00:05:06;43.0;43.0;
55686;PMS5003;41911;52.362;4.978;2023-05-07T00:05:38;47.0;46.0;
55686;PMS5003;41911;52.362;4.978;2023-05-07T00:06:09;43.0;42.0;
55686;PMS5003;41911;52.362;4.978;2023-05-07T00:06:40;47.0;45.0;
55686;PMS5003;41911;52.362;4.978;2023-05-07T00:07:11;46.0;43.0;
55686;PMS5003;41911;52.362;4.978;2023-05-07T00:07:42;40.0;40.0;
55686;PMS5003;41911;52.362;4.978;2023-05-07T00:08:13;48.0;46.0;
55686;PMS5003;41911;52.362;4.978;2023-05-07T00:08:44;45.0;44.0;
55686;PMS5003;41911;52.362;4.978;2023-05-07T00:09:15;45.0;45.0;
55686;PMS5003;41911;52.362;4.978;2023-05-07T00:09:46;43.0;43.0;
55686;PMS5003;41911;52.362;4.978;2023-05-07T00:10:17;44.0;43.0;
55686;PMS5003;41911;52.362;4.978;2023-05-07T00:10:47;44.0;44.0;
55686;PMS5003;41911;52.362;4.978;2023-05-07T00:11:18;49.0;49.0;
55686;PMS5003;41911;52.362;4.978;2023-05-07T00:11:49;45.0;44.0;
55686;PMS5003;41911;52.362;4.978;2023-05-07T00:12:20;51.0;49.0;
55686;PMS5003;41911;52.362;4.978;2023-05-07T00:12:51;47.0;47.0;
55686;PMS5003;41911;52.362;4.978;2023-05-07T00:13:22;43.0;43.0;
55686;PMS5003;41911;52.362;4.978;2023-05-07T00:13:53;48.0;47.0;
55686;PMS5003;41911;52.362;4.978;2023-05-07T00:14:24;44.0;43.0;
55686;PMS5003;41911;52.362;4.978;2023-05-07T00:14:55;55.0;51.0;
55686;PMS5003;41911;52.362;4.978;2023-05-07T00:15:26;47.0;46.0;
55686;PMS5003;41911;52.362;4.978;2023-05-07T00:15:57;53.0;48.0;
55686;PMS5003;41911;52.362;4.978;2023-05-07T00:16:28;46.0;44.0;
55686;PMS5003;41911;52.362;4.978;2023-05-07T00:16:59;42.0;42.0;
55686;PMS5003;41911;52.362;4.978;2023-05-07T00:17:30;48.0;46.0;
55686;PMS5003;41911;52.362;4.978;2023-05-07T00:18:01;53.0;47.0;
55686;PMS5003;41911;52.362;4.978;2023-05-07T00:18:32;47.0;45.0;
55686;PMS5003;41911;52.362;4.978;2023-05-07T00:19:03;47.0;46.0;
55686;PMS5003;41911;52.362;4.978;2023-05-07T00:19:34;48.0;46.0;
55686;PMS5003;41911;52.362;4.978;2023-05-07T00:20:06;47.0;46.0;
55686;PMS5003;41911;52.362;4.978;2023-05-07T00:20:37;46.0;45.0;
55686;PMS5003;41911;52.362;4.978;2023-05-07T00:21:08;45.0;45.0;
55686;PMS5003;41911;52.362;4.978;2023-05-07T00:21:39;54.0;53.0;
55686;PMS5003;41911;52.362;4.978;2023-05-07T00:22:10;49.0;46.0;
55686;PMS5003;41911;52.362;4.978;2023-05-07T00:22:43;52.0;51.0;
55686;PMS5003;41911;52.362;4.978;2023-05-07T00:23:14;51.0;50.0;
55686;PMS5003;41911;52.362;4.978;2023-05-07T00:23:45;46.0;45.0;
55686;PMS5003;41911;52.362;4.978;2023-05-07T00:24:16;50.0;49.0;
55686;PMS5003;41911;52.362;4.978;2023-05-07T00:24:47;50.0;50.0;
55686;PMS5003;41911;52.362;4.978;2023-05-07T00:25:18;46.0;45.0;
55686;PMS5003;41911;52.362;4.978;2023-05-07T00:25:49;44.0;44.0;
55686;PMS5003;41911;52.362;4.978;2023-05-07T00:26:20;44.0;42.0;
55686;PMS5003;41911;52.362;4.978;2023-05-07T00:26:51;49.0;48.0;
55686;PMS5003;41911;52.362;4.978;2023-05-07T00:27:22;54.0;52.0;
55686;PMS5003;41911;52.362;4.978;2023-05-07T00:27:53;48.0;47.0;
55686;PMS5003;41911;52.362;4.978;2023-05-07T00:28:24;51.0;49.0;
55686;PMS5003;41911;52.362;4.978;2023-05-07T00:28:54;49.0;46.0;
55686;PMS5003;41911;52.362;4.978;2023-05-07T00:29:25;48.0;48.0;
55686;PMS5003;41911;52.362;4.978;2023-05-07T00:29:56;46.0;45.0;
55686;PMS5003;41911;52.362;4.978;2023-05-07T00:30:27;45.0;44.0;
55686;PMS5003;41911;52.362;4.978;2023-05-07T00:30:58;53.0;48.0;
55686;PMS5003;41911;52.362;4.978;2023-05-07T00:31:29;48.0;48.0;
55686;PMS5003;41911;52.362;4.978;2023-05-07T00:32:00;49.0;47.0;
55686;PMS5003;41911;52.362;4.978;2023-05-07T00:32:31;52.0;49.0;
55686;PMS5003;41911;52.362;4.978;2023-05-07T00:33:02;49.0;47.0;
55686;PMS5003;41911;52.362;4.978;2023-05-07T00:33:33;48.0;47.0;
55686;PMS5003;41911;52.362;4.978;2023-05-07T00:34:04;50.0;49.0;
55686;PMS5003;41911;52.362;4.978;2023-05-07T00:34:35;49.0;48.0;
55686;PMS5003;41911;52.362;4.978;2023-05-07T00:35:06;52.0;49.0;
55686;PMS5003;41911;52.362;4.978;2023-05-07T00:35:38;49.0;48.0;
55686;PMS5003;41911;52.362;4.978;2023-05-07T00:36:09;50.0;48.0;
55686;PMS5003;41911;52.362;4.978;2023-05-07T00:36:42;49.0;48.0;
55686;PMS5003;41911;52.362;4.978;2023-05-07T00:37:13;48.0;47.0;
55686;PMS5003;41911;52.362;4.978;2023-05-07T00:37:44;50.0;49.0;
55686;PMS5003;41911;52.362;4.978;2023-05-07T00:38:15;45.0;44.0;
55686;PMS5003;41911;52.362;4.978;2023-05-07T00:38:46;47.0;45.0;
55686;PMS5003;41911;52.362;4.978;2023-05-07T00:39:17;46.0;44.0;
55686;PMS5003;41911;52.362;4.978;2023-05-07T00:39:47;54.0;50.0;
55686;PMS5003;41911;52.362;4.978;2023-05-07T00:40:18;49.0;48.0;
55686;PMS5003;41911;52.362;4.978;2023-05-07T00:40:49;44.0;44.0;
55686;PMS5003;41911;52.362;4.978;2023-05-07T00:41:20;44.0;42.0;
55686;PMS5003;41911;52.362;4.978;2023-05-07T00:41:51;50.0;49.0;
55686;PMS5003;41911;52.362;4.978;2023-05-07T00:42:22;53.0;50.0;
55686;PMS5003;41911;52.362;4.978;2023-05-07T00:42:53;50.0;49.0;
55686;PMS5003;41911;52.362;4.978;2023-05-07T00:43:24;47.0;47.0;
55686;PMS5003;41911;52.362;4.978;2023-05-07T00:43:55;56.0;52.0;
55686;PMS5003;41911;52.362;4.978;2023-05-07T00:44:26;54.0;51.0;
55686;PMS5003;41911;52.362;4.978;2023-05-07T00:44:57;51.0;49.0;
55686;PMS5003;41911;52.362;4.978;2023-05-07T00:45:28;47.0;46.0;
55686;PMS5003;41911;52.362;4.978;2023-05-07T00:46:00;46.0;46.0;
55686;PMS5003;41911;52.362;4.978;2023-05-07T00:46:31;52.0;51.0;
55686;PMS5003;41911;52.362;4.978;2023-05-07T00:47:04;51.0;50.0;
55686;PMS5003;41911;52.362;4.978;2023-05-07T00:47:36;49.0;48.0;
55686;PMS5003;41911;52.362;4.978;2023-05-07T00:48:07;50.0;46.0;
55686;PMS5003;41911;52.362;4.978;2023-05-07T00:48:38;48.0;48.0;
55686;PMS5003;41911;52.362;4.978;2023-05-07T00:49:09;50.0;49.0;
55686;PMS5003;41911;52.362;4.978;2023-05-07T00:49:41;49.0;48.0;
55686;PMS5003;41911;52.362;4.978;2023-05-07T00:50:13;47.0;47.0;
55686;PMS5003;41911;52.362;4.978;2023-05-07T00:50:44;52.0;50.0;
55686;PMS5003;41911;52.362;4.978;2023-05-07T00:51:15;53.0;52.0;
55686;PMS5003;41911;52.362;4.978;2023-05-07T00:51:47;48.0;48.0;
55686;PMS5003;41911;52.362;4.978;2023-05-07T00:52:18;45.0;45.0;
55686;PMS5003;41911;52.362;4.978;2023-05-07T00:52:52;50.0;49.0;
55686;PMS5003;41911;52.362;4.978;2023-05-07T00:53:23;44.0;43.0;
55686;PMS5003;41911;52.362;4.978;2023-05-07T00:53:55;50.0;46.0;
55686;PMS5003;41911;52.362;4.978;2023-05-07T00:54:26;45.0;44.0;
55686;PMS5003;41911;52.362;4.978;2023-05-07T00:54:57;50.0;49.0;
55686;PMS5003;41911;52.362;4.978;2023-05-07T00:55:32;55.0;54.0;
55686;PMS5003;41911;52.362;4.978;2023-05-07T00:56:04;43.0;43.0;
55686;PMS5003;41911;52.362;4.978;2023-05-07T00:56:36;47.0;46.0;
55686;PMS5003;41911;52.362;4.978;2023-05-07T00:57:07;53.0;49.0;
55686;PMS5003;41911;52.362;4.978;2023-05-07T00:57:40;52.0;49.0;
55686;PMS5003;41911;52.362;4.978;2023-05-07T00:58:11;51.0;50.0;
55686;PMS5003;41911;52.362;4.978;2023-05-07T00:58:42;52.0;51.0;
55686;PMS5003;41911;52.362;4.978;2023-05-07T00:59:14;56.0;54.0;
55686;PMS5003;41911;52.362;4.978;2023-05-07T00:59:46;51.0;49.0;
55686;PMS5003;41911;52.362;4.978;2023-05-07T01:00:18;49.0;49.0;
55686;PMS5003;41911;52.362;4.978;2023-05-07T01:00:49;55.0;53.0;
55686;PMS5003;41911;52.362;4.978;2023-05-07T01:01:20;50.0;50.0;
55686;PMS5003;41911;52.362;4.978;2023-05-07T01:01:51;49.0;47.0;
55686;PMS5003;41911;52.362;4.978;2023-05-07T01:02:22;51.0;49.0;
55686;PMS5003;41911;52.362;4.978;2023-05-07T01:02:53;56.0;54.0;
55686;PMS5003;41911;52.362;4.978;2023-05-07T01:03:24;50.0;49.0;
55686;PMS5003;41911;52.362;4.978;2023-05-07T01:03:56;53.0;52.0;
55686;PMS5003;41911;52.362;4.978;2023-05-07T01:04:26;47.0;47.0;
55686;PMS5003;41911;52.362;4.978;2023-05-07T01:04:57;49.0;47.0;
55686;PMS5003;41911;52.362;4.978;2023-05-07T01:05:30;48.0;47.0;
55686;PMS5003;41911;52.362;4.978;2023-05-07T01:06:02;48.0;46.0;
55686;PMS5003;41911;52.362;4.978;2023-05-07T01:06:34;47.0;47.0;
55686;PMS5003;41911;52.362;4.978;2023-05-07T01:07:05;54.0;50.0;
55686;PMS5003;41911;52.362;4.978;2023-05-07T01:07:37;45.0;42.0;
55686;PMS5003;41911;52.362;4.978;2023-05-07T01:08:10;48.0;46.0;
55686;PMS5003;41911;52.362;4.978;2023-05-07T01:08:41;49.0;48.0;
55686;PMS5003;41911;52.362;4.978;2023-05-07T01:09:12;47.0;47.0;
55686;PMS5003;41911;52.362;4.978;2023-05-07T01:09:43;45.0;45.0;
55686;PMS5003;41911;52.362;4.978;2023-05-07T01:10:14;49.0;48.0;
55686;PMS5003;41911;52.362;4.978;2023-05-07T01:10:47;47.0;47.0;
55686;PMS5003;41911;52.362;4.978;2023-05-07T01:11:18;45.0;43.0;
55686;PMS5003;41911;52.362;4.978;2023-05-07T01:11:49;46.0;45.0;
55686;PMS5003;41911;52.362;4.978;2023-05-07T01:12:21;44.0;44.0;
55686;PMS5003;41911;52.362;4.978;2023-05-07T01:12:53;45.0;44.0;
55686;PMS5003;41911;52.362;4.978;2023-05-07T01:13:27;49.0;48.0;
55686;PMS5003;41911;52.362;4.978;2023-05-07T01:13:58;44.0;44.0;
55686;PMS5003;41911;52.362;4.978;2023-05-07T01:14:30;46.0;44.0;
55686;PMS5003;41911;52.362;4.978;2023-05-07T01:15:02;44.0;44.0;
55686;PMS5003;41911;52.362;4.978;2023-05-07T01:15:34;46.0;44.0;
55686;PMS5003;41911;52.362;4.978;2023-05-07T01:16:06;50.0;49.0;
55686;PMS5003;41911;52.362;4.978;2023-05-07T01:16:38;49.0;49.0;
55686;PMS5003;41911;52.362;4.978;2023-05-07T01:17:09;44.0;40.0;
55686;PMS5003;41911;52.362;4.978;2023-05-07T01:17:41;43.0;43.0;
55686;PMS5003;41911;52.362;4.978;2023-05-07T01:18:13;46.0;43.0;
55686;PMS5003;41911;52.362;4.978;2023-05-07T01:18:44;45.0;45.0;
55686;PMS5003;41911;52.362;4.978;2023-05-07T01:19:15;46.0;45.0;
55686;PMS5003;41911;52.362;4.978;2023-05-07T01:19:49;50.0;49.0;
55686;PMS5003;41911;52.362;4.978;2023-05-07T01:20:20;48.0;47.0;
55686;PMS5003;41911;52.362;4.978;2023-05-07T01:20:52;49.0;48.0;
55686;PMS5003;41911;52.362;4.978;2023-05-07T01:21:26;50.0;50.0;
55686;PMS5003;41911;52.362;4.978;2023-05-07T01:22:04;46.0;45.0;
55686;PMS5003;41911;52.362;4.978;2023-05-07T01:22:41;41.0;40.0;
55686;PMS5003;41911;52.362;4.978;2023-05-07T01:23:13;45.0;44.0;
55686;PMS5003;41911;52.362;4.978;2023-05-07T01:23:45;47.0;47.0;
55686;PMS5003;41911;52.362;4.978;2023-05-07T01:24:17;44.0;43.0;
55686;PMS5003;41911;52.362;4.978;2023-05-07T01:24:48;45.0;44.0;
55686;PMS5003;41911;52.362;4.978;2023-05-07T01:25:20;47.0;46.0;
55686;PMS5003;41911;52.362;4.978;2023-05-07T01:25:51;47.0;46.0;
55686;PMS5003;41911;52.362;4.978;2023-05-07T01:26:23;43.0;43.0;
55686;PMS5003;41911;52.362;4.978;2023-05-07T01:26:54;47.0;47.0;
55686;PMS5003;41911;52.362;4.978;2023-05-07T01:27:25;43.0;43.0;
55686;PMS5003;41911;52.362;4.978;2023-05-07T01:27:56;47.0;45.0;
55686;PMS5003;41911;52.362;4.978;2023-05-07T01:28:27;39.0;38.0;
55686;PMS5003;41911;52.362;4.978;2023-05-07T01:28:58;40.0;40.0;
55686;PMS5003;41911;52.362;4.978;2023-05-07T01:29:29;42.0;41.0;
55686;PMS5003;41911;52.362;4.978;2023-05-07T01:30:00;44.0;43.0;
55686;PMS5003;41911;52.362;4.978;2023-05-07T01:30:31;41.0;40.0;
55686;PMS5003;41911;52.362;4.978;2023-05-07T01:31:04;43.0;42.0;
55686;PMS5003;41911;52.362;4.978;2023-05-07T01:31:36;37.0;37.0;
55686;PMS5003;41911;52.362;4.978;2023-05-07T01:32:08;44.0;42.0;
55686;PMS5003;41911;52.362;4.978;2023-05-07T01:32:43;48.0;46.0;
55686;PMS5003;41911;52.362;4.978;2023-05-07T01:33:20;42.0;42.0;
55686;PMS5003;41911;52.362;4.978;2023-05-07T01:33:51;43.0;42.0;
55686;PMS5003;41911;52.362;4.978;2023-05-07T01:34:24;44.0;44.0;
55686;PMS5003;41911;52.362;4.978;2023-05-07T01:34:57;41.0;41.0;
55686;PMS5003;41911;52.362;4.978;2023-05-07T01:35:32;44.0;42.0;
55686;PMS5003;41911;52.362;4.978;2023-05-07T01:36:06;45.0;44.0;
55686;PMS5003;41911;52.362;4.978;2023-05-07T01:36:38;41.0;41.0;
55686;PMS5003;41911;52.362;4.978;2023-05-07T01:37:13;40.0;40.0;
55686;PMS5003;41911;52.362;4.978;2023-05-07T01:37:45;45.0;43.0;
55686;PMS5003;41911;52.362;4.978;2023-05-07T01:38:16;46.0;43.0;
55686;PMS5003;41911;52.362;4.978;2023-05-07T01:38:49;41.0;41.0;
55686;PMS5003;41911;52.362;4.978;2023-05-07T01:39:20;48.0;46.0;
55686;PMS5003;41911;52.362;4.978;2023-05-07T01:39:52;36.0;36.0;
55686;PMS5003;41911;52.362;4.978;2023-05-07T01:40:24;41.0;39.0;
55686;PMS5003;41911;52.362;4.978;2023-05-07T01:40:56;45.0;42.0;
55686;PMS5003;41911;52.362;4.978;2023-05-07T01:41:27;40.0;40.0;
55686;PMS5003;41911;52.362;4.978;2023-05-07T01:41:58;43.0;43.0;
55686;PMS5003;41911;52.362;4.978;2023-05-07T01:42:30;45.0;45.0;
55686;PMS5003;41911;52.362;4.978;2023-05-07T01:43:02;46.0;43.0;
55686;PMS5003;41911;52.362;4.978;2023-05-07T01:43:33;40.0;39.0;
55686;PMS5003;41911;52.362;4.978;2023-05-07T01:44:04;39.0;38.0;
55686;PMS5003;41911;52.362;4.978;2023-05-07T01:44:36;48.0;46.0;
55686;PMS5003;41911;52.362;4.978;2023-05-07T01:45:07;44.0;43.0;
55686;PMS5003;41911;52.362;4.978;2023-05-07T01:45:39;44.0;43.0;
55686;PMS5003;41911;52.362;4.978;2023-05-07T01:46:11;40.0;40.0;
55686;PMS5003;41911;52.362;4.978;2023-05-07T01:46:43;41.0;39.0;
55686;PMS5003;41911;52.362;4.978;2023-05-07T01:47:14;42.0;42.0;
55686;PMS5003;41911;52.362;4.978;2023-05-07T01:47:46;40.0;39.0;
55686;PMS5003;41911;52.362;4.978;2023-05-07T01:48:17;48.0;46.0;
55686;PMS5003;41911;52.362;4.978;2023-05-07T01:48:48;39.0;39.0;
55686;PMS5003;41911;52.362;4.978;2023-05-07T01:49:20;43.0;39.0;
55686;PMS5003;41911;52.362;4.978;2023-05-07T01:49:51;42.0;42.0;
55686;PMS5003;41911;52.362;4.978;2023-05-07T01:50:23;41.0;40.0;
55686;PMS5003;41911;52.362;4.978;2023-05-07T01:50:54;41.0;39.0;
55686;PMS5003;41911;52.362;4.978;2023-05-07T01:51:25;44.0;43.0;
55686;PMS5003;41911;52.362;4.978;2023-05-07T01:51:57;45.0;42.0;
55686;PMS5003;41911;52.362;4.978;2023-05-07T01:52:28;42.0;41.0;
55686;PMS5003;41911;52.362;4.978;2023-05-07T01:53:00;38.0;38.0;
55686;PMS5003;41911;52.362;4.978;2023-05-07T01:53:35;39.0;38.0;
55686;PMS5003;41911;52.362;4.978;2023-05-07T01:54:06;45.0;43.0;
55686;PMS5003;41911;52.362;4.978;2023-05-07T01:54:37;41.0;41.0;
55686;PMS5003;41911;52.362;4.978;2023-05-07T01:55:08;42.0;39.0;
55686;PMS5003;41911;52.362;4.978;2023-05-07T01:55:39;40.0;38.0;
55686;PMS5003;41911;52.362;4.978;2023-05-07T01:56:10;37.0;37.0;
55686;PMS5003;41911;52.362;4.978;2023-05-07T01:56:41;41.0;38.0;
55686;PMS5003;41911;52.362;4.978;2023-05-07T01:57:12;40.0;40.0;
55686;PMS5003;41911;52.362;4.978;2023-05-07T01:57:43;41.0;41.0;
55686;PMS5003;41911;52.362;4.978;2023-05-07T01:58:14;38.0;38.0;
55686;PMS5003;41911;52.362;4.978;2023-05-07T01:58:45;42.0;41.0;
55686;PMS5003;41911;52.362;4.978;2023-05-07T01:59:16;42.0;42.0;
55686;PMS5003;41911;52.362;4.978;2023-05-07T01:59:47;41.0;40.0;
55686;PMS5003;41911;52.362;4.978;2023-05-07T02:00:18;40.0;38.0;
55686;PMS5003;41911;52.362;4.978;2023-05-07T02:00:50;38.0;37.0;
55686;PMS5003;41911;52.362;4.978;2023-05-07T02:01:20;41.0;41.0;
55686;PMS5003;41911;52.362;4.978;2023-05-07T02:01:51;37.0;36.0;
55686;PMS5003;41911;52.362;4.978;2023-05-07T02:02:22;38.0;37.0;
55686;PMS5003;41911;52.362;4.978;2023-05-07T02:02:53;37.0;36.0;
55686;PMS5003;41911;52.362;4.978;2023-05-07T02:03:24;41.0;41.0;
55686;PMS5003;41911;52.362;4.978;2023-05-07T02:03:55;41.0;39.0;
55686;PMS5003;41911;52.362;4.978;2023-05-07T02:04:26;40.0;38.0;
55686;PMS5003;41911;52.362;4.978;2023-05-07T02:04:57;39.0;38.0;
55686;PMS5003;41911;52.362;4.978;2023-05-07T02:05:28;36.0;36.0;
55686;PMS5003;41911;52.362;4.978;2023-05-07T02:05:59;36.0;35.0;
55686;PMS5003;41911;52.362;4.978;2023-05-07T02:06:30;39.0;38.0;
55686;PMS5003;41911;52.362;4.978;2023-05-07T02:07:01;36.0;36.0;
55686;PMS5003;41911;52.362;4.978;2023-05-07T02:07:32;36.0;35.0;
55686;PMS5003;41911;52.362;4.978;2023-05-07T02:08:03;43.0;42.0;
55686;PMS5003;41911;52.362;4.978;2023-05-07T02:08:34;47.0;45.0;
55686;PMS5003;41911;52.362;4.978;2023-05-07T02:09:05;42.0;42.0;
55686;PMS5003;41911;52.362;4.978;2023-05-07T02:09:36;40.0;38.0;
55686;PMS5003;41911;52.362;4.978;2023-05-07T02:10:08;37.0;36.0;
55686;PMS5003;41911;52.362;4.978;2023-05-07T02:10:40;37.0;35.0;
55686;PMS5003;41911;52.362;4.978;2023-05-07T02:11:11;40.0;38.0;
55686;PMS5003;41911;52.362;4.978;2023-05-07T02:11:42;46.0;46.0;
55686;PMS5003;41911;52.362;4.978;2023-05-07T02:12:13;41.0;39.0;
55686;PMS5003;41911;52.362;4.978;2023-05-07T02:12:43;35.0;34.0;
55686;PMS5003;41911;52.362;4.978;2023-05-07T02:13:14;37.0;35.0;
55686;PMS5003;41911;52.362;4.978;2023-05-07T02:13:45;41.0;39.0;
55686;PMS5003;41911;52.362;4.978;2023-05-07T02:14:16;39.0;38.0;
55686;PMS5003;41911;52.362;4.978;2023-05-07T02:14:47;43.0;42.0;
55686;PMS5003;41911;52.362;4.978;2023-05-07T02:15:18;36.0;35.0;
55686;PMS5003;41911;52.362;4.978;2023-05-07T02:15:49;37.0;36.0;
55686;PMS5003;41911;52.362;4.978;2023-05-07T02:16:20;42.0;41.0;
55686;PMS5003;41911;52.362;4.978;2023-05-07T02:16:51;36.0;36.0;
55686;PMS5003;41911;52.362;4.978;2023-05-07T02:17:22;34.0;34.0;
55686;PMS5003;41911;52.362;4.978;2023-05-07T02:18:04;38.0;34.0;
55686;PMS5003;41911;52.362;4.978;2023-05-07T02:18:36;39.0;38.0;
55686;PMS5003;41911;52.362;4.978;2023-05-07T02:19:07;41.0;38.0;
55686;PMS5003;41911;52.362;4.978;2023-05-07T02:19:38;41.0;40.0;
55686;PMS5003;41911;52.362;4.978;2023-05-07T02:20:10;33.0;33.0;
55686;PMS5003;41911;52.362;4.978;2023-05-07T02:20:41;37.0;36.0;
55686;PMS5003;41911;52.362;4.978;2023-05-07T02:21:12;35.0;35.0;
55686;PMS5003;41911;52.362;4.978;2023-05-07T02:21:43;40.0;38.0;
55686;PMS5003;41911;52.362;4.978;2023-05-07T02:22:14;35.0;34.0;
55686;PMS5003;41911;52.362;4.978;2023-05-07T02:22:45;34.0;34.0;
55686;PMS5003;41911;52.362;4.978;2023-05-07T02:23:16;39.0;37.0;
55686;PMS5003;41911;52.362;4.978;2023-05-07T02:23:47;35.0;34.0;
55686;PMS5003;41911;52.362;4.978;2023-05-07T02:24:18;41.0;37.0;
55686;PMS5003;41911;52.362;4.978;2023-05-07T02:24:49;33.0;32.0;
55686;PMS5003;41911;52.362;4.978;2023-05-07T02:25:19;33.0;33.0;
55686;PMS5003;41911;52.362;4.978;2023-05-07T02:25:50;39.0;39.0;
55686;PMS5003;41911;52.362;4.978;2023-05-07T02:26:21;37.0;36.0;
55686;PMS5003;41911;52.362;4.978;2023-05-07T02:26:52;35.0;35.0;
55686;PMS5003;41911;52.362;4.978;2023-05-07T02:27:23;36.0;36.0;
55686;PMS5003;41911;52.362;4.978;2023-05-07T02:27:54;37.0;36.0;
55686;PMS5003;41911;52.362;4.978;2023-05-07T02:28:25;35.0;35.0;
55686;PMS5003;41911;52.362;4.978;2023-05-07T02:28:56;35.0;35.0;
55686;PMS5003;41911;52.362;4.978;2023-05-07T02:29:27;31.0;31.0;
55686;PMS5003;41911;52.362;4.978;2023-05-07T02:29:58;33.0;32.0;
55686;PMS5003;41911;52.362;4.978;2023-05-07T02:30:29;34.0;34.0;
55686;PMS5003;41911;52.362;4.978;2023-05-07T02:30:59;31.0;31.0;
55686;PMS5003;41911;52.362;4.978;2023-05-07T02:31:32;33.0;32.0;
55686;PMS5003;41911;52.362;4.978;2023-05-07T02:32:03;31.0;29.0;
55686;PMS5003;41911;52.362;4.978;2023-05-07T02:32:34;29.0;28.0;
55686;PMS5003;41911;52.362;4.978;2023-05-07T02:33:05;35.0;34.0;
55686;PMS5003;41911;52.362;4.978;2023-05-07T02:33:36;29.0;28.0;
55686;PMS5003;41911;52.362;4.978;2023-05-07T02:34:07;29.0;28.0;
55686;PMS5003;41911;52.362;4.978;2023-05-07T02:34:38;36.0;31.0;
55686;PMS5003;41911;52.362;4.978;2023-05-07T02:35:09;35.0;34.0;
55686;PMS5003;41911;52.362;4.978;2023-05-07T02:35:40;32.0;32.0;
55686;PMS5003;41911;52.362;4.978;2023-05-07T02:36:11;33.0;31.0;
55686;PMS5003;41911;52.362;4.978;2023-05-07T02:36:43;27.0;27.0;
55686;PMS5003;41911;52.362;4.978;2023-05-07T02:37:14;32.0;29.0;
55686;PMS5003;41911;52.362;4.978;2023-05-07T02:37:45;33.0;32.0;
55686;PMS5003;41911;52.362;4.978;2023-05-07T02:38:16;29.0;28.0;
55686;PMS5003;41911;52.362;4.978;2023-05-07T02:38:47;30.0;30.0;
55686;PMS5003;41911;52.362;4.978;2023-05-07T02:39:18;24.0;24.0;
55686;PMS5003;41911;52.362;4.978;2023-05-07T02:39:49;28.0;28.0;
55686;PMS5003;41911;52.362;4.978;2023-05-07T02:40:20;29.0;28.0;
55686;PMS5003;41911;52.362;4.978;2023-05-07T02:40:51;29.0;29.0;
55686;PMS5003;41911;52.362;4.978;2023-05-07T02:41:22;27.0;27.0;
55686;PMS5003;41911;52.362;4.978;2023-05-07T02:41:53;25.0;25.0;
55686;PMS5003;41911;52.362;4.978;2023-05-07T02:42:24;27.0;27.0;
55686;PMS5003;41911;52.362;4.978;2023-05-07T02:42:55;29.0;28.0;
55686;PMS5003;41911;52.362;4.978;2023-05-07T02:43:26;26.0;26.0;
55686;PMS5003;41911;52.362;4.978;2023-05-07T02:43:57;28.0;26.0;
55686;PMS5003;41911;52.362;4.978;2023-05-07T02:44:28;26.0;25.0;
55686;PMS5003;41911;52.362;4.978;2023-05-07T02:44:59;31.0;31.0;
55686;PMS5003;41911;52.362;4.978;2023-05-07T02:45:30;28.0;27.0;
55686;PMS5003;41911;52.362;4.978;2023-05-07T02:46:01;26.0;25.0;
55686;PMS5003;41911;52.362;4.978;2023-05-07T02:46:32;26.0;26.0;
55686;PMS5003;41911;52.362;4.978;2023-05-07T02:47:03;31.0;30.0;
55686;PMS5003;41911;52.362;4.978;2023-05-07T02:47:34;27.0;26.0;
55686;PMS5003;41911;52.362;4.978;2023-05-07T02:48:05;22.0;22.0;
55686;PMS5003;41911;52.362;4.978;2023-05-07T02:48:36;25.0;24.0;
55686;PMS5003;41911;52.362;4.978;2023-05-07T02:49:07;30.0;29.0;
55686;PMS5003;41911;52.362;4.978;2023-05-07T02:49:38;25.0;25.0;
55686;PMS5003;41911;52.362;4.978;2023-05-07T02:50:09;27.0;25.0;
55686;PMS5003;41911;52.362;4.978;2023-05-07T02:50:41;22.0;22.0;
55686;PMS5003;41911;52.362;4.978;2023-05-07T02:51:13;21.0;21.0;
55686;PMS5003;41911;52.362;4.978;2023-05-07T02:51:44;28.0;27.0;
55686;PMS5003;41911;52.362;4.978;2023-05-07T02:52:15;23.0;23.0;
55686;PMS5003;41911;52.362;4.978;2023-05-07T02:52:46;26.0;24.0;
55686;PMS5003;41911;52.362;4.978;2023-05-07T02:53:17;21.0;21.0;
55686;PMS5003;41911;52.362;4.978;2023-05-07T02:53:48;21.0;21.0;
55686;PMS5003;41911;52.362;4.978;2023-05-07T02:54:19;28.0;25.0;
55686;PMS5003;41911;52.362;4.978;2023-05-07T02:54:50;28.0;26.0;
55686;PMS5003;41911;52.362;4.978;2023-05-07T02:55:21;26.0;26.0;
55686;PMS5003;41911;52.362;4.978;2023-05-07T02:55:52;23.0;23.0;
55686;PMS5003;41911;52.362;4.978;2023-05-07T02:56:25;26.0;23.0;
55686;PMS5003;41911;52.362;4.978;2023-05-07T02:56:56;23.0;23.0;
55686;PMS5003;41911;52.362;4.978;2023-05-07T02:57:27;24.0;24.0;
55686;PMS5003;41911;52.362;4.978;2023-05-07T02:57:58;24.0;22.0;
55686;PMS5003;41911;52.362;4.978;2023-05-07T02:58:29;23.0;23.0;
55686;PMS5003;41911;52.362;4.978;2023-05-07T02:59:00;22.0;21.0;
55686;PMS5003;41911;52.362;4.978;2023-05-07T02:59:31;22.0;22.0;
55686;PMS5003;41911;52.362;4.978;2023-05-07T03:00:09;25.0;25.0;
55686;PMS5003;41911;52.362;4.978;2023-05-07T03:00:41;23.0;23.0;
55686;PMS5003;41911;52.362;4.978;2023-05-07T03:01:12;24.0;23.0;
55686;PMS5003;41911;52.362;4.978;2023-05-07T03:01:43;22.0;22.0;
55686;PMS5003;41911;52.362;4.978;2023-05-07T03:02:14;24.0;24.0;
55686;PMS5003;41911;52.362;4.978;2023-05-07T03:02:45;19.0;18.0;
55686;PMS5003;41911;52.362;4.978;2023-05-07T03:03:16;22.0;22.0;
55686;PMS5003;41911;52.362;4.978;2023-05-07T03:03:47;25.0;24.0;
55686;PMS5003;41911;52.362;4.978;2023-05-07T03:04:18;21.0;21.0;
55686;PMS5003;41911;52.362;4.978;2023-05-07T03:04:49;23.0;23.0;
55686;PMS5003;41911;52.362;4.978;2023-05-07T03:05:20;19.0;19.0;
55686;PMS5003;41911;52.362;4.978;2023-05-07T03:05:51;24.0;24.0;
55686;PMS5003;41911;52.362;4.978;2023-05-07T03:06:22;21.0;21.0;
55686;PMS5003;41911;52.362;4.978;2023-05-07T03:06:53;22.0;21.0;
55686;PMS5003;41911;52.362;4.978;2023-05-07T03:07:24;21.0;21.0;
55686;PMS5003;41911;52.362;4.978;2023-05-07T03:07:54;23.0;22.0;
55686;PMS5003;41911;52.362;4.978;2023-05-07T03:08:26;24.0;23.0;
55686;PMS5003;41911;52.362;4.978;2023-05-07T03:08:57;22.0;22.0;
55686;PMS5003;41911;52.362;4.978;2023-05-07T03:09:28;23.0;22.0;
55686;PMS5003;41911;52.362;4.978;2023-05-07T03:09:59;27.0;25.0;
55686;PMS5003;41911;52.362;4.978;2023-05-07T03:10:30;23.0;23.0;
55686;PMS5003;41911;52.362;4.978;2023-05-07T03:11:01;25.0;24.0;
55686;PMS5003;41911;52.362;4.978;2023-05-07T03:11:32;26.0;25.0;
55686;PMS5003;41911;52.362;4.978;2023-05-07T03:12:03;23.0;21.0;
55686;PMS5003;41911;52.362;4.978;2023-05-07T03:12:34;23.0;23.0;
55686;PMS5003;41911;52.362;4.978;2023-05-07T03:13:05;22.0;21.0;
55686;PMS5003;41911;52.362;4.978;2023-05-07T03:13:36;23.0;21.0;
55686;PMS5003;41911;52.362;4.978;2023-05-07T03:14:06;24.0;23.0;
55686;PMS5003;41911;52.362;4.978;2023-05-07T03:14:37;26.0;25.0;
55686;PMS5003;41911;52.362;4.978;2023-05-07T03:15:09;22.0;22.0;
55686;PMS5003;41911;52.362;4.978;2023-05-07T03:15:40;25.0;24.0;